Time;durP1;ratioP1;P1;durP2;ratioP2;P2;SDS_P1;SDS_P2;PMS_P1;PMS_P2;Temp;Humidity;BMP_temperature;BMP_pressure;BME280_temperature;BME280_humidity;BME280_pressure;Samples;Min_cycle;Max_cycle;Signal;HPM_P1;HPM_P2
2021/01/27 00:00:30;;;;;;;22.48;11.55;;;3.60;99.90;;;;;;5071283;28;20024;-90
2021/01/27 00:02:56;;;;;;;22.80;12.18;;;3.70;99.90;;;;;;5071749;28;20465;-89
2021/01/27 00:05:30;;;;;;;26.75;11.50;;;3.50;99.90;;;;;;5038390;28;20063;-88
2021/01/27 00:07:56;;;;;;;26.73;11.38;;;3.40;99.90;;;;;;5071706;28;20020;-88
2021/01/27 00:10:22;;;;;;;24.98;11.90;;;3.40;99.90;;;;;;5038652;28;20079;-88
2021/01/27 00:12:48;;;;;;;19.30;11.52;;;3.60;99.90;;;;;;5071491;28;20068;-89
2021/01/27 00:15:25;;;;;;;19.35;11.43;;;3.30;99.90;;;;;;5072250;28;20052;-89
2021/01/27 00:17:51;;;;;;;24.08;12.43;;;3.20;99.90;;;;;;5071410;28;20024;-89
2021/01/27 00:20:25;;;;;;;21.13;10.57;;;3.20;99.90;;;;;;5056230;28;20540;-88
2021/01/27 00:22:52;;;;;;;21.65;12.00;;;3.20;99.90;;;;;;5076625;28;20036;-88
2021/01/27 00:25:20;;;;;;;23.92;12.20;;;3.20;99.90;;;;;;5058397;28;20557;-88
2021/01/27 00:27:46;;;;;;;21.23;11.98;;;3.30;99.90;;;;;;5074594;28;20028;-88
2021/01/27 00:30:25;;;;;;;21.17;11.90;;;3.40;99.90;;;;;;5074854;28;20064;-88
2021/01/27 00:32:51;;;;;;;22.42;13.48;;;3.40;99.90;;;;;;5074789;28;20032;-89
2021/01/27 00:35:20;;;;;;;23.45;12.48;;;3.30;99.90;;;;;;5076731;28;20069;-87
2021/01/27 00:37:46;;;;;;;26.30;13.25;;;3.30;99.90;;;;;;5074339;28;20390;-88
2021/01/27 00:40:13;;;;;;;23.77;12.40;;;3.30;99.90;;;;;;5058221;28;20025;-88
2021/01/27 00:42:38;;;;;;;21.80;13.50;;;3.40;99.90;;;;;;5074339;28;20081;-88
2021/01/27 00:45:06;;;;;;;24.63;14.10;;;3.20;99.90;;;;;;5074668;28;20103;-88
2021/01/27 00:47:31;;;;;;;24.15;13.27;;;3.30;99.90;;;;;;5057441;28;20509;-89
2021/01/27 00:49:57;;;;;;;25.58;14.75;;;3.40;99.90;;;;;;5057852;28;20474;-88
2021/01/27 00:52:23;;;;;;;26.00;13.82;;;3.30;99.90;;;;;;5074437;28;20040;-88
2021/01/27 00:54:48;;;;;;;27.88;16.15;;;3.30;99.90;;;;;;5057235;28;20047;-88
2021/01/27 00:57:14;;;;;;;28.52;14.82;;;3.20;99.90;;;;;;5041533;28;20432;-89
2021/01/27 00:59:40;;;;;;;26.88;15.00;;;3.20;99.90;;;;;;5057851;28;20033;-88
2021/01/27 01:02:05;;;;;;;26.13;15.63;;;3.20;99.90;;;;;;5057946;28;20425;-89
2021/01/27 01:04:31;;;;;;;28.45;15.55;;;3.20;99.90;;;;;;5075558;28;20052;-89
2021/01/27 01:06:58;;;;;;;26.08;15.57;;;3.30;99.90;;;;;;5057285;28;20078;-88
2021/01/27 01:09:23;;;;;;;28.92;17.20;;;3.20;99.90;;;;;;5074201;28;20522;-88
2021/01/27 01:11:49;;;;;;;27.65;16.83;;;3.10;99.90;;;;;;5074120;28;20112;-89
2021/01/27 01:14:15;;;;;;;29.15;17.45;;;3.10;99.90;;;;;;5074194;28;20464;-88
2021/01/27 01:16:40;;;;;;;28.10;17.10;;;3.10;99.90;;;;;;5073926;28;20064;-88
2021/01/27 01:19:09;;;;;;;28.30;16.50;;;3.10;99.90;;;;;;5057925;28;20470;-88
2021/01/27 01:21:35;;;;;;;26.38;17.10;;;3.10;99.90;;;;;;5057176;28;20119;-90
2021/01/27 01:24:00;;;;;;;26.52;16.20;;;3.10;99.90;;;;;;5073768;28;20489;-88
2021/01/27 01:26:26;;;;;;;29.05;18.08;;;3.10;99.90;;;;;;5057649;28;20055;-88
2021/01/27 01:28:52;;;;;;;28.95;17.15;;;3.10;99.90;;;;;;5057125;28;20470;-88
2021/01/27 01:31:17;;;;;;;27.65;16.70;;;3.00;99.90;;;;;;5074137;28;20394;-88
2021/01/27 01:33:43;;;;;;;26.25;16.15;;;3.10;99.90;;;;;;5057064;28;20075;-88
2021/01/27 01:36:09;;;;;;;33.60;17.85;;;3.00;99.90;;;;;;5040195;28;20527;-88
2021/01/27 01:38:35;;;;;;;27.63;16.75;;;3.00;99.90;;;;;;5057203;28;20536;-88
2021/01/27 01:41:03;;;;;;;30.50;17.92;;;3.00;99.90;;;;;;5073550;28;20025;-88
2021/01/27 01:43:47;;;;;;;27.10;16.75;;;3.00;99.90;;;;;;5074943;28;20390;-88
2021/01/27 01:46:18;;;;;;;23.95;16.55;;;2.90;99.90;;;;;;5075126;28;20093;-88
2021/01/27 01:48:56;;;;;;;26.00;17.10;;;2.90;99.90;;;;;;5074896;28;20032;-88
2021/01/27 01:51:49;;;;;;;24.67;17.40;;;3.00;99.90;;;;;;5073661;28;20064;-88
2021/01/27 01:54:26;;;;;;;28.85;15.68;;;3.00;99.90;;;;;;5075239;28;20044;-87
2021/01/27 01:56:56;;;;;;;24.67;16.38;;;2.90;99.90;;;;;;5074708;28;20028;-89
2021/01/27 01:59:22;;;;;;;26.40;17.88;;;3.00;99.90;;;;;;5073224;28;20028;-89
2021/01/27 02:01:52;;;;;;;27.77;19.02;;;3.00;99.90;;;;;;5073214;28;20032;-88
2021/01/27 02:04:18;;;;;;;26.60;17.95;;;2.90;99.90;;;;;;5073145;28;20028;-88
2021/01/27 02:06:44;;;;;;;26.30;16.88;;;2.90;99.90;;;;;;5074183;28;20026;-88
2021/01/27 02:09:10;;;;;;;23.73;17.75;;;3.00;99.90;;;;;;5040063;28;20058;-89
2021/01/27 02:11:47;;;;;;;31.50;19.40;;;3.00;99.90;;;;;;5073253;28;20459;-88
2021/01/27 02:14:20;;;;;;;26.88;19.25;;;3.00;99.90;;;;;;5072881;28;20055;-88
2021/01/27 02:17:34;;;;;;;28.45;18.70;;;3.00;99.90;;;;;;5074197;28;20063;-89
2021/01/27 02:20:18;;;;;;;27.00;18.25;;;3.00;99.90;;;;;;4992512;28;20061;-88
2021/01/27 02:22:59;;;;;;;28.13;18.20;;;3.10;99.90;;;;;;5064297;28;20040;-88
2021/01/27 02:25:43;;;;;;;29.15;19.17;;;3.10;99.90;;;;;;5072876;28;20025;-88
2021/01/27 02:28:12;;;;;;;24.42;18.20;;;3.00;99.90;;;;;;5073893;28;20028;-88
2021/01/27 02:30:59;;;;;;;27.98;18.98;;;3.00;99.90;;;;;;5072409;28;20422;-88
2021/01/27 02:33:37;;;;;;;24.67;18.88;;;3.00;99.90;;;;;;5072516;28;20551;-88
2021/01/27 02:36:33;;;;;;;24.90;19.73;;;3.00;99.90;;;;;;5072185;28;20032;-88
2021/01/27 02:39:27;;;;;;;28.65;20.15;;;2.90;99.90;;;;;;5072340;28;20032;-88
2021/01/27 02:42:15;;;;;;;25.50;19.23;;;3.00;99.90;;;;;;5065301;28;20067;-87
2021/01/27 02:44:49;;;;;;;26.42;19.10;;;3.00;99.90;;;;;;5058958;28;20402;-88
2021/01/27 02:47:22;;;;;;;32.60;18.98;;;3.10;99.90;;;;;;5074076;28;20107;-88
2021/01/27 02:50:10;;;;;;;27.17;19.05;;;3.10;99.90;;;;;;5073461;28;20355;-88
2021/01/27 02:52:41;;;;;;;27.88;19.10;;;3.00;99.90;;;;;;5072658;28;20033;-88
2021/01/27 02:55:27;;;;;;;23.23;18.63;;;3.00;99.90;;;;;;5055365;28;20032;-88
2021/01/27 02:58:06;;;;;;;22.85;17.80;;;3.00;99.90;;;;;;5072304;28;20028;-88
2021/01/27 03:00:38;;;;;;;24.02;18.00;;;2.90;99.90;;;;;;5072480;28;20025;-88
2021/01/27 03:03:16;;;;;;;30.27;18.40;;;3.00;99.90;;;;;;5072361;28;20040;-88
2021/01/27 03:05:45;;;;;;;24.60;17.63;;;3.00;99.90;;;;;;5073356;28;20029;-88
2021/01/27 03:08:28;;;;;;;24.08;17.75;;;3.00;99.90;;;;;;5073962;28;20032;-87
2021/01/27 03:11:17;;;;;;;23.80;18.17;;;3.00;99.90;;;;;;5073126;28;20070;-88
2021/01/27 03:13:45;;;;;;;23.08;17.10;;;3.00;99.90;;;;;;5072436;28;20478;-88
2021/01/27 03:16:15;;;;;;;26.67;17.48;;;3.00;99.90;;;;;;5072381;28;20056;-88
2021/01/27 03:18:50;;;;;;;23.60;17.45;;;3.00;99.90;;;;;;5072426;28;20024;-88
2021/01/27 03:21:21;;;;;;;24.70;18.80;;;3.00;99.90;;;;;;5071698;28;20033;-88
2021/01/27 03:23:55;;;;;;;23.30;18.42;;;3.00;99.90;;;;;;5072232;28;20060;-89
2021/01/27 03:26:46;;;;;;;22.77;16.63;;;3.10;99.90;;;;;;5073198;28;20031;-88
2021/01/27 03:29:38;;;;;;;23.67;17.80;;;3.00;99.90;;;;;;5073299;28;20025;-88
2021/01/27 03:32:29;;;;;;;24.30;18.80;;;3.00;99.90;;;;;;5071745;28;20060;-88
2021/01/27 03:35:04;;;;;;;26.08;17.83;;;2.80;99.90;;;;;;5071907;28;20119;-89
2021/01/27 03:37:43;;;;;;;23.38;19.65;;;2.90;99.90;;;;;;5075659;28;20028;-88
2021/01/27 03:40:11;;;;;;;26.00;19.55;;;2.90;99.90;;;;;;5075279;28;20485;-89
2021/01/27 03:42:45;;;;;;;20.23;16.63;;;2.90;99.90;;;;;;5072155;28;20071;-89
2021/01/27 03:45:14;;;;;;;21.98;18.50;;;2.90;99.90;;;;;;5071927;28;20028;-88
2021/01/27 03:47:57;;;;;;;21.90;16.40;;;2.80;99.90;;;;;;5073202;28;20078;-89
2021/01/27 03:50:26;;;;;;;25.83;18.13;;;3.00;99.90;;;;;;5073813;28;20082;-89
2021/01/27 03:53:08;;;;;;;22.20;17.50;;;2.80;99.90;;;;;;5071648;28;20494;-89
2021/01/27 03:55:44;;;;;;;25.17;18.58;;;2.90;99.90;;;;;;5073705;28;20083;-89
2021/01/27 03:58:12;;;;;;;23.80;18.25;;;2.80;99.90;;;;;;5075887;28;20021;-89
2021/01/27 04:00:38;;;;;;;22.83;19.90;;;2.80;99.90;;;;;;5075690;28;20025;-89
2021/01/27 04:03:19;;;;;;;25.67;21.00;;;2.70;99.90;;;;;;5076071;28;20040;-89
2021/01/27 04:05:46;;;;;;;24.52;18.98;;;2.70;99.90;;;;;;5075845;28;20028;-89
2021/01/27 04:08:14;;;;;;;25.35;19.98;;;2.70;99.90;;;;;;5076516;28;20520;-89
2021/01/27 04:10:42;;;;;;;26.10;20.45;;;2.80;99.90;;;;;;5059773;28;20471;-89
2021/01/27 04:13:09;;;;;;;24.98;19.83;;;2.80;99.90;;;;;;5042446;28;20040;-90
2021/01/27 04:15:35;;;;;;;26.70;18.85;;;2.80;99.90;;;;;;5075643;28;20478;-89
2021/01/27 04:18:01;;;;;;;24.88;18.25;;;2.70;99.90;;;;;;5059168;28;20044;-89
2021/01/27 04:20:27;;;;;;;24.15;19.83;;;2.80;99.90;;;;;;5076153;28;20027;-89
2021/01/27 04:22:53;;;;;;;22.60;19.65;;;2.60;99.90;;;;;;5059985;28;20081;-91
2021/01/27 04:25:19;;;;;;;26.00;20.17;;;2.70;99.90;;;;;;5076160;28;20024;-90
2021/01/27 04:27:45;;;;;;;24.92;20.17;;;2.60;99.90;;;;;;5060422;28;20031;-89
2021/01/27 04:30:14;;;;;;;23.98;19.67;;;2.60;99.90;;;;;;5078179;28;20059;-89
2021/01/27 04:32:39;;;;;;;26.15;21.45;;;2.70;99.90;;;;;;5078352;28;20043;-89
2021/01/27 04:35:07;;;;;;;23.90;19.60;;;2.60;99.90;;;;;;5078584;28;20032;-90
2021/01/27 04:37:33;;;;;;;25.95;21.13;;;2.60;99.90;;;;;;5082691;28;20056;-90
2021/01/27 04:39:59;;;;;;;27.45;20.98;;;2.60;99.90;;;;;;5079677;28;20028;-87
2021/01/27 04:42:28;;;;;;;22.90;18.42;;;2.60;99.90;;;;;;5079124;28;20032;-87
2021/01/27 04:44:58;;;;;;;23.88;18.80;;;2.60;99.90;;;;;;5086714;28;20032;-87
2021/01/27 04:47:43;;;;;;;21.25;17.88;;;2.70;99.90;;;;;;5100028;28;20036;-89
2021/01/27 04:50:30;;;;;;;24.65;18.67;;;2.70;99.90;;;;;;5100131;28;20031;-86
2021/01/27 04:53:13;;;;;;;21.73;17.48;;;2.70;99.90;;;;;;5098631;28;20055;-94
2021/01/27 04:56:01;;;;;;;21.27;17.90;;;2.80;99.90;;;;;;5097533;28;20062;-89
2021/01/27 04:58:50;;;;;;;22.52;18.48;;;2.70;99.90;;;;;;5089802;28;20020;-89
2021/01/27 05:01:38;;;;;;;23.13;18.85;;;2.70;99.90;;;;;;5070014;28;20123;-89
2021/01/27 05:04:27;;;;;;;22.85;18.92;;;2.70;99.90;;;;;;5099418;28;20032;-91
2021/01/27 05:07:00;;;;;;;26.40;18.33;;;2.80;99.90;;;;;;5099789;28;20058;-92
2021/01/27 05:09:47;;;;;;;25.88;20.52;;;2.70;99.90;;;;;;5098814;28;20008;-91
2021/01/27 05:12:15;;;;;;;24.60;19.85;;;2.70;99.90;;;;;;5098702;28;20072;-90
2021/01/27 05:14:47;;;;;;;26.90;20.98;;;2.70;99.90;;;;;;5098546;28;20013;-90
2021/01/27 05:17:19;;;;;;;30.48;21.27;;;2.80;99.90;;;;;;5097502;28;20051;-89
2021/01/27 05:19:46;;;;;;;28.23;21.88;;;2.70;99.90;;;;;;5081830;28;20029;-89
2021/01/27 05:22:13;;;;;;;23.45;18.38;;;2.80;99.90;;;;;;5077968;28;20028;-90
2021/01/27 05:24:41;;;;;;;27.13;21.63;;;2.70;99.90;;;;;;5077350;28;20115;-90
2021/01/27 05:27:08;;;;;;;27.90;21.63;;;2.70;99.90;;;;;;5085590;28;20031;-89
2021/01/27 05:29:41;;;;;;;30.40;23.58;;;2.60;99.90;;;;;;5080214;28;20021;-90
2021/01/27 05:32:13;;;;;;;32.22;22.88;;;2.70;99.90;;;;;;5076653;28;20033;-90
2021/01/27 05:34:50;;;;;;;24.63;20.13;;;2.60;99.90;;;;;;5075263;28;20036;-90
2021/01/27 05:37:27;;;;;;;25.65;20.10;;;2.70;99.90;;;;;;5074961;28;20032;-90
2021/01/27 05:40:22;;;;;;;27.45;22.02;;;2.80;99.90;;;;;;5077647;28;20059;-90
2021/01/27 05:42:48;;;;;;;29.00;23.17;;;2.70;99.90;;;;;;5076509;28;20114;-90
2021/01/27 05:45:42;;;;;;;31.75;24.25;;;2.60;99.90;;;;;;5043515;28;20067;-90
2021/01/27 05:48:29;;;;;;;27.25;21.05;;;2.70;99.90;;;;;;5071599;28;20037;-90
2021/01/27 05:51:11;;;;;;;24.50;19.45;;;2.70;99.90;;;;;;5074612;28;20032;-90
2021/01/27 05:53:37;;;;;;;29.92;23.20;;;2.90;99.90;;;;;;5074780;28;20048;-90
2021/01/27 05:56:05;;;;;;;29.45;21.73;;;2.80;99.90;;;;;;5077094;28;20029;-91
2021/01/27 05:58:37;;;;;;;26.63;20.52;;;2.70;99.90;;;;;;5074752;28;20067;-89
2021/01/27 06:01:31;;;;;;;28.13;20.42;;;2.70;99.90;;;;;;5074521;28;20021;-90
2021/01/27 06:04:11;;;;;;;23.85;18.45;;;2.80;99.90;;;;;;5075607;28;20090;-89
2021/01/27 06:06:46;;;;;;;27.90;21.50;;;2.80;99.90;;;;;;5074054;28;20036;-89
2021/01/27 06:09:13;;;;;;;28.13;21.00;;;2.80;99.90;;;;;;5073635;28;20024;-89
2021/01/27 06:11:39;;;;;;;22.50;18.30;;;2.80;99.90;;;;;;5056854;28;20483;-89
2021/01/27 06:14:17;;;;;;;26.42;19.65;;;2.80;99.90;;;;;;5075145;28;20090;-90
2021/01/27 06:16:45;;;;;;;28.27;21.00;;;2.80;99.90;;;;;;5074356;28;20091;-89
2021/01/27 06:19:16;;;;;;;24.88;19.92;;;2.90;99.90;;;;;;5073200;28;20059;-89
2021/01/27 06:21:57;;;;;;;23.17;18.95;;;3.00;99.90;;;;;;5075063;28;20051;-89
2021/01/27 06:24:41;;;;;;;28.15;20.98;;;3.00;99.90;;;;;;5074800;28;20470;-89
2021/01/27 06:27:25;;;;;;;28.43;22.40;;;2.90;99.90;;;;;;5073495;28;20390;-89
2021/01/27 06:30:06;;;;;;;35.17;24.30;;;2.80;99.90;;;;;;5073624;28;20036;-89
2021/01/27 06:32:38;;;;;;;29.85;21.70;;;2.80;99.90;;;;;;5073546;28;20032;-89
2021/01/27 06:35:32;;;;;;;28.05;21.63;;;2.90;99.90;;;;;;5073183;28;20028;-89
2021/01/27 06:38:06;;;;;;;33.58;21.75;;;2.90;99.90;;;;;;5073148;28;20474;-90
2021/01/27 06:40:35;;;;;;;25.17;19.40;;;3.00;99.90;;;;;;5074642;28;20470;-89
2021/01/27 06:43:31;;;;;;;29.42;21.08;;;2.90;99.90;;;;;;5075605;28;20371;-88
2021/01/27 06:46:15;;;;;;;35.60;24.77;;;3.00;99.90;;;;;;5087224;28;20028;-87
2021/01/27 06:49:05;;;;;;;23.52;18.13;;;3.00;99.90;;;;;;5075281;28;20031;-87
2021/01/27 06:51:40;;;;;;;24.92;19.10;;;3.10;99.90;;;;;;5074878;28;20509;-88
2021/01/27 06:54:25;;;;;;;25.23;20.40;;;3.10;99.90;;;;;;5075289;28;20059;-88
2021/01/27 06:57:06;;;;;;;35.00;24.42;;;3.20;99.90;;;;;;5073827;28;20032;-89
2021/01/27 06:59:57;;;;;;;32.30;24.40;;;3.10;99.90;;;;;;5073143;28;20021;-88
2021/01/27 07:03:00;;;;;;;32.08;24.25;;;3.10;99.90;;;;;;5074585;28;20021;-89
2021/01/27 07:05:28;;;;;;;30.67;23.15;;;3.00;99.90;;;;;;5072291;28;20029;-89
2021/01/27 07:08:31;;;;;;;40.63;26.05;;;3.10;99.90;;;;;;5072942;28;20021;-89
2021/01/27 07:11:04;;;;;;;30.15;22.83;;;3.20;99.90;;;;;;5073135;28;20478;-88
2021/01/27 07:13:41;;;;;;;31.73;23.88;;;3.20;99.90;;;;;;5073781;28;20032;-89
2021/01/27 07:16:20;;;;;;;33.30;24.63;;;3.20;99.90;;;;;;5073345;28;20132;-88
2021/01/27 07:18:57;;;;;;;33.15;24.38;;;3.20;99.90;;;;;;5075192;28;20032;-88
2021/01/27 07:21:45;;;;;;;36.63;25.50;;;3.20;99.90;;;;;;5073914;28;20020;-88
2021/01/27 07:24:20;;;;;;;39.20;26.83;;;3.20;99.90;;;;;;5074045;28;20028;-88
2021/01/27 07:27:00;;;;;;;37.17;28.42;;;3.20;99.90;;;;;;5076462;28;20032;-87
2021/01/27 07:29:56;;;;;;;35.67;26.23;;;3.10;99.90;;;;;;5077525;28;20037;-87
2021/01/27 07:32:26;;;;;;;;;;;3.20;99.90;;;;;;5037175;28;20627;-88
2021/01/27 07:35:01;;;;;;;40.20;28.88;;;3.30;99.90;;;;;;5076498;28;19904;-88
2021/01/27 07:37:48;;;;;;;48.50;30.85;;;3.30;99.90;;;;;;5080846;28;20027;-88
2021/01/27 07:40:31;;;;;;;49.58;32.13;;;3.30;99.90;;;;;;5081939;28;20095;-87
2021/01/27 07:43:10;;;;;;;46.50;32.83;;;3.30;99.90;;;;;;5090586;28;20054;-88
2021/01/27 07:45:38;;;;;;;46.15;31.45;;;3.40;99.90;;;;;;5082847;28;20024;-88
2021/01/27 07:48:29;;;;;;;42.67;30.08;;;3.40;99.90;;;;;;5076379;28;20115;-87
2021/01/27 07:51:03;;;;;;;41.17;30.23;;;3.40;99.90;;;;;;5076148;28;20029;-88
2021/01/27 07:53:33;;;;;;;45.75;31.52;;;3.30;99.90;;;;;;5076124;28;20051;-87
2021/01/27 07:56:22;;;;;;;51.60;35.72;;;3.40;99.90;;;;;;5075898;28;20025;-87
2021/01/27 07:59:14;;;;;;;46.67;32.53;;;3.40;99.90;;;;;;5075870;28;20043;-88
2021/01/27 08:01:49;;;;;;;58.17;37.28;;;3.40;99.90;;;;;;5075820;28;20485;-88
2021/01/27 08:04:40;;;;;;;45.35;32.03;;;3.40;99.90;;;;;;5075588;28;20033;-89
2021/01/27 08:07:15;;;;;;;59.45;39.13;;;3.40;99.90;;;;;;5075462;28;20068;-89
2021/01/27 08:09:42;;;;;;;47.83;33.38;;;3.50;99.90;;;;;;5076160;28;20020;-87
2021/01/27 08:12:16;;;;;;;47.60;33.95;;;3.60;99.90;;;;;;5059730;28;20037;-88
2021/01/27 08:15:13;;;;;;;56.10;37.35;;;3.70;99.90;;;;;;5075783;28;20082;-88
2021/01/27 08:17:55;;;;;;;58.63;38.22;;;3.70;99.90;;;;;;5075066;28;20087;-88
2021/01/27 08:20:34;;;;;;;61.45;40.15;;;3.70;99.90;;;;;;5075975;28;20032;-87
2021/01/27 08:23:10;;;;;;;63.38;39.55;;;3.60;99.90;;;;;;5075828;28;20025;-88
2021/01/27 08:25:56;;;;;;;97.45;42.28;;;3.70;99.90;;;;;;5077626;28;20064;-88
2021/01/27 08:28:37;;;;;;;46.35;32.05;;;3.70;99.90;;;;;;5076791;28;20031;-89
2021/01/27 08:31:09;;;;;;;49.10;32.72;;;3.80;99.90;;;;;;5075212;28;20025;-88
2021/01/27 08:33:50;;;;;;;48.42;31.92;;;3.80;99.90;;;;;;5074959;28;20079;-87
2021/01/27 08:36:21;;;;;;;55.17;36.38;;;3.80;99.90;;;;;;5074983;28;20394;-88
2021/01/27 08:38:56;;;;;;;48.92;31.75;;;3.80;99.90;;;;;;5075094;28;20112;-88
2021/01/27 08:41:51;;;;;;;62.22;34.90;;;3.90;99.90;;;;;;5074008;28;20024;-88
2021/01/27 08:44:20;;;;;;;43.45;30.77;;;4.00;99.90;;;;;;5073764;28;20083;-89
2021/01/27 08:46:58;;;;;;;45.58;29.75;;;4.00;99.90;;;;;;5074923;28;20112;-89
2021/01/27 08:49:36;;;;;;;59.22;32.85;;;4.10;99.90;;;;;;5075260;28;20070;-89
2021/01/27 08:52:22;;;;;;;58.80;30.63;;;4.20;99.90;;;;;;5074393;28;20478;-89
2021/01/27 08:55:02;;;;;;;178.23;43.42;;;4.40;99.90;;;;;;5063652;28;20036;-91
2021/01/27 08:57:38;;;;;;;34.80;24.45;;;4.40;99.90;;;;;;5075240;28;20024;-89
2021/01/27 09:00:21;;;;;;;33.55;24.45;;;4.40;99.90;;;;;;5074522;28;20103;-88
2021/01/27 09:03:02;;;;;;;36.08;25.05;;;4.40;99.90;;;;;;5076464;28;20025;-89
2021/01/27 09:05:28;;;;;;;34.40;23.73;;;4.40;99.90;;;;;;5074763;28;20035;-89
2021/01/27 09:07:59;;;;;;;38.00;27.58;;;4.50;99.90;;;;;;5077017;28;20024;-89
2021/01/27 09:10:33;;;;;;;50.10;29.00;;;4.60;99.90;;;;;;5075088;28;20035;-89
2021/01/27 09:13:19;;;;;;;43.70;26.73;;;4.70;99.90;;;;;;5075759;28;20029;-87
2021/01/27 09:15:50;;;;;;;51.55;27.52;;;4.70;99.90;;;;;;5074480;28;20094;-88
2021/01/27 09:18:16;;;;;;;40.60;23.52;;;4.80;99.90;;;;;;5075445;28;20072;-90
2021/01/27 09:20:42;;;;;;;43.13;25.02;;;5.00;99.90;;;;;;5041168;28;20040;-89
2021/01/27 09:23:08;;;;;;;48.75;24.35;;;5.20;99.90;;;;;;5074774;28;20032;-89
2021/01/27 09:25:45;;;;;;;40.03;24.33;;;5.30;99.90;;;;;;5074108;28;20063;-89
2021/01/27 09:28:19;;;;;;;44.40;20.42;;;5.50;99.90;;;;;;5075739;28;20024;-89
2021/01/27 09:30:48;;;;;;;42.03;18.58;;;5.70;99.90;;;;;;5074028;28;20021;-88
2021/01/27 09:33:21;;;;;;;39.38;18.05;;;5.90;99.90;;;;;;5075605;28;20111;-89
2021/01/27 09:35:47;;;;;;;28.50;13.50;;;6.00;99.90;;;;;;5076440;28;20029;-90
2021/01/27 09:38:23;;;;;;;36.08;13.32;;;6.10;99.90;;;;;;5058479;28;20451;-90
2021/01/27 09:41:01;;;;;;;33.58;13.10;;;6.20;99.90;;;;;;5080560;28;20032;-88
2021/01/27 09:43:34;;;;;;;23.60;10.13;;;6.20;99.90;;;;;;5082882;28;20028;-89
2021/01/27 09:46:20;;;;;;;38.30;14.02;;;6.30;99.90;;;;;;5077326;28;20029;-89
2021/01/27 09:48:48;;;;;;;31.58;11.32;;;6.40;99.90;;;;;;5074598;28;20095;-89
2021/01/27 09:51:15;;;;;;;32.10;12.07;;;6.40;99.90;;;;;;5074613;28;20025;-89
2021/01/27 09:53:42;;;;;;;24.17;8.98;;;6.50;99.90;;;;;;5074815;28;20032;-87
2021/01/27 09:56:10;;;;;;;21.10;11.15;;;6.50;99.90;;;;;;5076616;28;20478;-87
2021/01/27 09:58:39;;;;;;;19.52;8.55;;;6.50;99.90;;;;;;5061159;28;20024;-88
2021/01/27 10:01:08;;;;;;;21.67;8.30;;;6.60;99.90;;;;;;5078781;28;20029;-88
2021/01/27 10:03:46;;;;;;;25.05;8.38;;;6.60;99.90;;;;;;5077014;28;20166;-88
2021/01/27 10:06:31;;;;;;;24.35;7.80;;;6.60;99.90;;;;;;5078885;28;20028;-88
2021/01/27 10:09:01;;;;;;;24.33;7.75;;;6.50;99.90;;;;;;5080090;28;20027;-89
2021/01/27 10:11:35;;;;;;;15.50;6.53;;;6.50;99.90;;;;;;5079946;28;20028;-92
2021/01/27 10:14:11;;;;;;;19.63;7.15;;;6.60;99.90;;;;;;5078821;28;20033;-88
2021/01/27 10:16:58;;;;;;;13.25;6.15;;;6.60;99.90;;;;;;5074653;28;20048;-88
2021/01/27 10:19:33;;;;;;;23.70;6.32;;;6.70;99.90;;;;;;5073117;28;20063;-88
2021/01/27 10:22:03;;;;;;;13.90;5.70;;;6.70;99.90;;;;;;5074282;28;20020;-87
2021/01/27 10:24:40;;;;;;;19.40;7.95;;;6.60;99.90;;;;;;5074191;28;20055;-91
2021/01/27 10:27:06;;;;;;;17.70;7.85;;;6.70;99.90;;;;;;5073237;28;20028;-89
2021/01/27 10:29:37;;;;;;;31.10;8.13;;;6.70;99.90;;;;;;5056589;28;20029;-88
2021/01/27 10:32:28;;;;;;;27.05;9.27;;;6.80;99.90;;;;;;5073130;28;20024;-89
2021/01/27 10:34:54;;;;;;;18.48;8.57;;;6.80;99.90;;;;;;5076139;28;20037;-88
2021/01/27 10:37:30;;;;;;;30.20;10.13;;;6.80;99.90;;;;;;5074844;28;20047;-88
2021/01/27 10:40:08;;;;;;;25.85;11.25;;;6.90;99.90;;;;;;5076172;28;20052;-90
2021/01/27 10:42:35;;;;;;;31.45;13.05;;;6.80;99.90;;;;;;5075397;28;20028;-90
2021/01/27 10:45:44;;;;;;;38.60;12.85;;;6.90;99.90;;;;;;5073936;28;20032;-93
2021/01/27 10:48:24;;;;;;;26.48;11.55;;;7.00;99.90;;;;;;5073674;28;20078;-90
2021/01/27 10:50:54;;;;;;;24.52;11.02;;;7.00;99.90;;;;;;5071846;28;20021;-91
2021/01/27 10:53:20;;;;;;;28.02;12.73;;;6.90;99.90;;;;;;5072665;28;20123;-89
2021/01/27 10:55:53;;;;;;;41.47;14.73;;;6.90;99.90;;;;;;5072702;28;20025;-88
2021/01/27 10:58:19;;;;;;;27.63;14.25;;;6.90;99.90;;;;;;5073767;28;20035;-88
2021/01/27 11:00:45;;;;;;;33.38;13.95;;;6.90;99.90;;;;;;5055911;28;20028;-89
2021/01/27 11:03:17;;;;;;;29.13;12.95;;;7.00;99.90;;;;;;5072585;28;20075;-89
2021/01/27 11:05:43;;;;;;;23.23;11.10;;;7.00;99.90;;;;;;5072686;28;20024;-89
2021/01/27 11:08:23;;;;;;;29.65;13.13;;;7.00;99.90;;;;;;5072413;28;20466;-89
2021/01/27 11:10:49;;;;;;;29.98;14.40;;;7.00;99.90;;;;;;5072557;28;20032;-88
2021/01/27 11:13:15;;;;;;;34.85;14.07;;;7.00;99.90;;;;;;5072604;28;20033;-90
2021/01/27 11:15:41;;;;;;;34.80;15.38;;;7.00;99.90;;;;;;5039190;28;20567;-89
2021/01/27 11:18:07;;;;;;;26.55;13.40;;;7.00;99.90;;;;;;5055455;28;20052;-89
2021/01/27 11:20:32;;;;;;;31.17;10.70;;;7.00;99.90;;;;;;5072488;28;20090;-89
2021/01/27 11:23:00;;;;;;;27.02;10.63;;;7.00;99.90;;;;;;5057453;28;20457;-88
2021/01/27 11:25:28;;;;;;;28.35;11.88;;;7.00;99.90;;;;;;5055995;28;20037;-89
2021/01/27 11:27:58;;;;;;;28.55;10.27;;;7.00;99.90;;;;;;5073646;28;20048;-89
2021/01/27 11:30:27;;;;;;;19.77;8.63;;;7.10;99.90;;;;;;5073119;28;20111;-90
2021/01/27 11:32:56;;;;;;;20.27;9.15;;;7.00;99.90;;;;;;5073754;28;20109;-88
2021/01/27 11:35:24;;;;;;;19.20;9.13;;;7.00;99.90;;;;;;5075422;28;20041;-88
2021/01/27 11:37:53;;;;;;;20.70;8.80;;;7.10;99.90;;;;;;5073329;28;20032;-87
2021/01/27 11:40:29;;;;;;;22.45;8.05;;;7.10;99.90;;;;;;5077912;28;20024;-86
2021/01/27 11:42:58;;;;;;;23.65;8.98;;;7.10;99.90;;;;;;5072767;28;20486;-91
2021/01/27 11:45:27;;;;;;;23.17;8.65;;;7.10;99.90;;;;;;5071979;28;20025;-89
2021/01/27 11:47:55;;;;;;;30.05;10.52;;;7.10;99.90;;;;;;5071643;28;20454;-89
2021/01/27 11:50:27;;;;;;;24.67;11.13;;;7.20;99.90;;;;;;5075073;28;20100;-89
2021/01/27 11:52:56;;;;;;;37.33;12.25;;;7.30;99.90;;;;;;5072736;28;20029;-89
2021/01/27 11:55:23;;;;;;;24.42;10.95;;;7.30;99.90;;;;;;5072234;28;20094;-89
2021/01/27 11:57:49;;;;;;;23.90;10.15;;;7.30;99.90;;;;;;5072830;28;20032;-90
2021/01/27 12:00:18;;;;;;;31.60;10.10;;;7.30;99.90;;;;;;5073535;28;20077;-89
2021/01/27 12:02:46;;;;;;;24.27;9.82;;;7.30;99.90;;;;;;5072422;28;20530;-89
2021/01/27 12:05:16;;;;;;;26.13;9.45;;;7.40;99.90;;;;;;5071557;28;20079;-90
2021/01/27 12:07:42;;;;;;;23.50;10.25;;;7.40;99.90;;;;;;5071916;28;20477;-90
2021/01/27 12:10:13;;;;;;;22.50;10.00;;;7.40;99.90;;;;;;5072988;28;20080;-91
2021/01/27 12:12:39;;;;;;;25.77;12.18;;;7.40;99.90;;;;;;5071592;28;20037;-90
2021/01/27 12:15:25;;;;;;;32.97;16.10;;;7.40;99.90;;;;;;5055434;28;20546;-90
2021/01/27 12:17:51;;;;;;;44.00;18.35;;;7.40;99.90;;;;;;5075722;28;20063;-90
2021/01/27 12:20:19;;;;;;;36.38;16.77;;;7.40;99.90;;;;;;5075566;28;20520;-90
2021/01/27 12:22:44;;;;;;;38.47;18.60;;;7.50;99.90;;;;;;5075648;28;20043;-88
2021/01/27 12:25:11;;;;;;;37.38;18.65;;;7.60;99.90;;;;;;5079264;28;20025;-89
2021/01/27 12:27:37;;;;;;;37.38;17.83;;;7.70;99.90;;;;;;5079479;28;20028;-88
2021/01/27 12:30:07;;;;;;;37.97;16.33;;;7.80;99.90;;;;;;5093197;28;20521;-89
2021/01/27 12:32:42;;;;;;;27.50;16.02;;;7.90;99.90;;;;;;5076529;28;20032;-89
2021/01/27 12:35:11;;;;;;;;;;;7.80;99.90;;;;;;5076638;28;20032;-89
2021/01/27 12:37:39;;;;;;;32.05;15.15;;;7.80;99.90;;;;;;5076127;28;19911;-89
2021/01/27 12:40:10;;;;;;;31.02;16.23;;;7.80;99.90;;;;;;5077784;28;20111;-88
2021/01/27 12:42:36;;;;;;;26.15;13.18;;;7.90;99.90;;;;;;5077637;28;20082;-88
2021/01/27 12:45:03;;;;;;;24.73;12.73;;;7.80;99.90;;;;;;5077579;28;20025;-88
2021/01/27 12:47:29;;;;;;;31.30;13.98;;;7.80;99.90;;;;;;5079382;28;20032;-88
2021/01/27 12:49:55;;;;;;;26.95;12.20;;;7.80;99.90;;;;;;5079084;28;20027;-87
2021/01/27 12:52:21;;;;;;;23.63;10.57;;;7.90;99.90;;;;;;5079703;28;20052;-88
2021/01/27 12:54:46;;;;;;;19.58;11.07;;;7.80;99.90;;;;;;5081363;28;20032;-88
2021/01/27 12:57:12;;;;;;;27.10;11.55;;;7.80;99.90;;;;;;5081838;28;20025;-88
2021/01/27 12:59:37;;;;;;;21.90;11.68;;;7.80;99.90;;;;;;5066168;28;20139;-87
2021/01/27 13:02:04;;;;;;;28.23;10.88;;;7.80;99.90;;;;;;5068479;28;20033;-87
2021/01/27 13:04:30;;;;;;;25.92;12.05;;;7.80;99.90;;;;;;5092779;28;20081;-88
2021/01/27 13:06:56;;;;;;;25.42;11.23;;;7.80;99.90;;;;;;5088789;28;20070;-87
2021/01/27 13:09:21;;;;;;;28.42;11.40;;;7.70;99.90;;;;;;5067866;28;20029;-88
2021/01/27 13:11:52;;;;;;;27.45;11.68;;;7.70;99.90;;;;;;5090191;28;20027;-88